Time;durP1;ratioP1;P1;durP2;ratioP2;P2;SDS_P1;SDS_P2;PMS_P1;PMS_P2;Temp;Humidity;BMP_temperature;BMP_pressure;BME280_temperature;BME280_humidity;BME280_pressure;Samples;Min_cycle;Max_cycle;Signal;HPM_P1;HPM_P2
2024/01/06 00:00:34;;;;;;;288.20;12.15;;;;;;;20.85;51.29;98229.81;7289309;19;130477;-38
2024/01/06 00:02:59;;;;;;;220.65;9.32;;;;;;;20.86;51.53;98220.19;7290580;19;132473;-38
2024/01/06 00:05:24;;;;;;;227.10;9.45;;;;;;;20.83;51.23;98218.69;7285575;19;129930;-37
2024/01/06 00:07:50;;;;;;;109.55;5.30;;;;;;;20.85;50.80;98218.53;7292017;19;129832;-43
2024/01/06 00:10:15;;;;;;;227.75;9.27;;;;;;;20.86;51.40;98215.75;7292771;19;130339;-40
2024/01/06 00:12:40;;;;;;;274.17;11.40;;;;;;;20.86;50.83;98215.75;7292159;19;129827;-36
2024/01/06 00:15:06;;;;;;;296.65;12.88;;;;;;;20.85;51.29;98211.50;7290623;19;129950;-39
2024/01/06 00:17:32;;;;;;;232.52;9.82;;;;;;;20.86;51.26;98213.13;7290708;19;131129;-43
2024/01/06 00:20:00;;;;;;;253.60;10.52;;;;;;;20.72;50.86;98201.56;7292555;19;131855;-40
2024/01/06 00:22:26;;;;;;;229.93;9.40;;;;;;;20.85;50.69;98219.34;7282304;19;129421;-38
2024/01/06 00:24:51;;;;;;;141.37;6.33;;;;;;;20.89;51.07;98222.44;7288405;19;129503;-44
2024/01/06 00:27:17;;;;;;;253.82;10.20;;;;;;;20.83;51.20;98223.91;7286797;19;130240;-42
2024/01/06 00:29:42;;;;;;;268.75;11.45;;;;;;;20.85;50.80;98221.97;7292814;19;130400;-39
2024/01/06 00:32:07;;;;;;;252.73;11.00;;;;;;;20.83;50.45;98223.91;7287945;19;130671;-39
2024/01/06 00:34:33;;;;;;;246.70;10.35;;;;;;;20.85;50.66;98232.41;7286940;19;131018;-42
2024/01/06 00:36:58;;;;;;;203.07;8.33;;;;;;;20.86;51.54;98231.41;7286969;19;130168;-43
2024/01/06 00:39:24;;;;;;;279.33;11.27;;;;;;;20.88;51.49;98229.47;7290606;19;130095;-39
2024/01/06 00:41:49;;;;;;;248.23;10.25;;;;;;;20.85;50.37;98237.63;7287086;19;131075;-39
2024/01/06 00:44:14;;;;;;;279.07;11.43;;;;;;;20.73;51.12;98231.97;7292276;19;133159;-39
2024/01/06 00:46:40;;;;;;;267.85;11.32;;;;;;;20.83;51.43;98252.66;7285598;19;131727;-43
2024/01/06 00:49:05;;;;;;;177.68;7.90;;;;;;;20.71;50.58;98226.06;7289552;19;129417;-43
2024/01/06 00:51:30;;;;;;;220.18;8.95;;;;;;;20.86;50.67;98252.31;7288942;19;129752;-40
2024/01/06 00:53:56;;;;;;;257.45;10.40;;;;;;;20.87;50.42;98247.91;7292684;19;130920;-38
2024/01/06 00:56:22;;;;;;;239.73;10.07;;;;;;;20.86;50.16;98251.53;7289565;19;130035;-39
2024/01/06 00:58:47;;;;;;;210.32;8.75;;;;;;;20.83;50.16;98251.84;7289871;19;130508;-44
2024/01/06 01:01:12;;;;;;;235.35;10.07;;;;;;;20.87;50.79;98247.91;7291024;19;132291;-39
2024/01/06 01:03:38;;;;;;;279.80;12.27;;;;;;;20.86;50.88;98252.31;7291618;19;131105;-40
2024/01/06 01:06:03;;;;;;;237.85;9.75;;;;;;;20.84;50.75;98249.06;7290069;19;131061;-38
2024/01/06 01:08:30;;;;;;;218.80;8.63;;;;;;;20.79;50.45;98256.59;7291833;19;130384;-37
2024/01/06 01:10:55;;;;;;;244.50;10.38;;;;;;;20.82;50.46;98260.66;7290569;19;129553;-44
2024/01/06 01:13:21;;;;;;;183.23;7.55;;;;;;;20.83;50.44;98257.88;7290269;19;130106;-41
2024/01/06 01:15:46;;;;;;;243.40;10.07;;;;;;;20.85;50.14;98253.31;7289620;19;130163;-39
2024/01/06 01:18:12;;;;;;;228.48;9.35;;;;;;;20.80;50.19;98255.59;7290441;19;129992;-38
2024/01/06 01:20:37;;;;;;;259.67;11.13;;;;;;;20.81;50.23;98257.22;7290948;19;131501;-40
2024/01/06 01:23:03;;;;;;;209.35;8.57;;;;;;;20.84;50.65;98256.88;7291779;19;130118;-43
2024/01/06 01:25:28;;;;;;;158.43;7.00;;;;;;;20.77;50.41;98241.06;7288320;19;130093;-43
2024/01/06 01:27:53;;;;;;;238.98;9.93;;;;;;;20.80;50.61;98260.84;7289866;19;130651;-39
2024/01/06 01:30:19;;;;;;;248.35;9.88;;;;;;;20.80;50.50;98249.56;7290378;19;130416;-38
2024/01/06 01:32:44;;;;;;;237.00;10.23;;;;;;;20.81;50.24;98254.63;7291437;19;130464;-41
2024/01/06 01:35:09;;;;;;;193.30;8.48;;;;;;;20.85;51.02;98262.94;7287931;19;130792;-42
2024/01/06 01:37:34;;;;;;;146.98;6.70;;;;;;;20.86;50.57;98252.31;7289030;19;130318;-40
2024/01/06 01:40:00;;;;;;;283.73;11.47;;;;;;;20.84;50.61;98259.50;7287972;19;129874;-41
2024/01/06 01:42:25;;;;;;;258.75;10.43;;;;;;;20.84;50.40;98249.06;7289724;19;129687;-40
2024/01/06 01:44:50;;;;;;;189.82;8.15;;;;;;;20.86;50.19;98257.53;7288946;19;130449;-42
2024/01/06 01:47:18;;;;;;;240.30;10.02;;;;;;;20.82;50.26;98261.50;7286861;19;132300;-40
2024/01/06 01:49:46;;;;;;;255.80;10.10;;;;;;;20.63;50.66;98230.50;7289271;19;129768;-40
2024/01/06 01:52:13;;;;;;;260.63;10.70;;;;;;;20.69;50.01;98240.31;7289640;19;131646;-39
2024/01/06 01:54:39;;;;;;;247.82;9.90;;;;;;;20.83;50.63;98262.28;7288907;19;132206;-38
2024/01/06 01:57:04;;;;;;;231.43;9.57;;;;;;;20.83;50.70;98262.28;7286800;19;130475;-42
2024/01/06 01:59:30;;;;;;;249.13;10.10;;;;;;;20.83;50.22;98260.50;7289739;19;129908;-40
2024/01/06 02:01:55;;;;;;;233.18;9.80;;;;;;;20.83;50.51;98260.50;7289792;19;129924;-40
2024/01/06 02:04:21;;;;;;;192.93;7.88;;;;;;;20.67;50.37;98237.84;7288725;19;130110;-39
2024/01/06 02:06:46;;;;;;;207.32;8.82;;;;;;;20.81;50.95;98251.22;7286639;19;131682;-39
2024/01/06 02:09:12;;;;;;;286.43;11.67;;;;;;;20.84;50.04;98262.09;7288681;19;130033;-42
2024/01/06 02:11:37;;;;;;;145.10;6.57;;;;;;;20.79;50.35;98266.22;7288508;19;130063;-42
2024/01/06 02:14:03;;;;;;;226.43;9.23;;;;;;;20.83;50.50;98264.88;7288572;19;130831;-39
2024/01/06 02:16:28;;;;;;;252.67;10.47;;;;;;;20.84;50.05;98264.72;7285690;19;129618;-43
2024/01/06 02:18:54;;;;;;;195.00;7.95;;;;;;;20.80;49.98;98258.22;7289167;19;129232;-42
2024/01/06 02:21:22;;;;;;;208.32;8.68;;;;;;;20.87;51.33;98260.97;7288306;19;130728;-39
2024/01/06 02:23:48;;;;;;;205.93;8.68;;;;;;;20.85;50.15;98258.53;7287481;19;131792;-44
2024/01/06 02:26:14;;;;;;;248.97;10.30;;;;;;;20.86;50.54;98261.97;7287386;19;130457;-37
2024/01/06 02:28:40;;;;;;;278.45;11.20;;;;;;;20.89;51.19;98261.63;7288543;19;130630;-40
2024/01/06 02:31:06;;;;;;;217.88;9.18;;;;;;;20.88;50.31;98266.03;7288338;19;129020;-35
2024/01/06 02:33:31;;;;;;;221.93;9.05;;;;;;;20.84;50.33;98256.88;7286665;19;129334;-36
2024/01/06 02:35:56;;;;;;;267.45;11.05;;;;;;;20.81;50.37;98265.06;7286943;19;132378;-35
2024/01/06 02:38:22;;;;;;;212.35;8.93;;;;;;;20.81;50.12;98267.66;7291139;19;131054;-40
2024/01/06 02:40:47;;;;;;;402.38;17.40;;;;;;;20.77;50.39;98269.78;7290521;19;129143;-36
2024/01/06 02:43:12;;;;;;;156.20;6.88;;;;;;;20.79;49.87;98261.81;7290075;19;129671;-35
2024/01/06 02:45:38;;;;;;;249.00;10.23;;;;;;;20.79;50.46;98267.06;7290292;19;129778;-36
2024/01/06 02:48:03;;;;;;;199.45;8.50;;;;;;;20.83;50.13;98267.50;7290044;19;130005;-39
2024/01/06 02:50:29;;;;;;;194.03;8.03;;;;;;;20.79;50.21;98277.50;7292832;19;133063;-41
2024/01/06 02:52:54;;;;;;;235.83;10.33;;;;;;;20.78;50.67;98275.84;7289405;19;130243;-38
2024/01/06 02:55:19;;;;;;;165.17;6.93;;;;;;;20.77;50.04;98275.03;7289393;19;131014;-38
2024/01/06 02:57:45;;;;;;;215.30;9.18;;;;;;;20.79;50.08;98274.88;7290834;19;129344;-37
2024/01/06 03:00:12;;;;;;;175.13;7.60;;;;;;;20.78;49.83;98286.28;7292162;19;129595;-39
2024/01/06 03:02:39;;;;;;;229.77;9.50;;;;;;;20.81;51.14;98283.34;7291914;19;130997;-39
2024/01/06 03:05:05;;;;;;;188.10;7.88;;;;;;;20.85;50.15;98291.66;7292139;19;130808;-38
2024/01/06 03:07:30;;;;;;;222.02;9.75;;;;;;;20.82;50.00;98284.16;7290778;19;129814;-39
2024/01/06 03:09:55;;;;;;;164.93;7.20;;;;;;;20.70;50.41;98260.19;7291092;19;129009;-38
2024/01/06 03:12:21;;;;;;;155.30;6.67;;;;;;;20.80;49.80;98284.34;7291735;19;130124;-39
2024/01/06 03:14:47;;;;;;;169.93;7.53;;;;;;;20.83;49.92;98289.22;7292182;19;130390;-38
2024/01/06 03:17:12;;;;;;;211.27;9.05;;;;;;;20.84;50.42;98290.84;7290918;19;129881;-38
2024/01/06 03:19:39;;;;;;;197.97;8.53;;;;;;;20.84;49.90;98301.28;7292347;19;131318;-39
2024/01/06 03:22:04;;;;;;;273.23;11.43;;;;;;;20.83;50.49;98294.44;7291055;19;130239;-38
2024/01/06 03:24:31;;;;;;;164.00;6.93;;;;;;;20.86;50.65;98291.50;7291746;19;130981;-38
2024/01/06 03:26:56;;;;;;;195.00;8.25;;;;;;;20.83;49.81;98289.22;7288657;19;129018;-41
2024/01/06 03:29:21;;;;;;;151.45;6.82;;;;;;;20.82;49.68;98292.84;7291921;19;131369;-40
2024/01/06 03:31:47;;;;;;;290.37;11.97;;;;;;;20.84;50.22;98296.06;7291504;19;131015;-40
2024/01/06 03:34:12;;;;;;;175.27;7.57;;;;;;;20.80;51.05;98293.97;7292632;19;130389;-35
2024/01/06 03:36:38;;;;;;;72.30;3.90;;;;;;;20.81;49.52;98304.25;7289694;19;129009;-40
2024/01/06 03:39:04;;;;;;;237.43;10.10;;;;;;;20.81;49.82;98293.78;7289979;19;129726;-37
2024/01/06 03:41:29;;;;;;;230.93;9.65;;;;;;;20.83;49.52;98299.69;7291603;19;132500;-36
2024/01/06 03:43:55;;;;;;;244.07;10.43;;;;;;;20.81;49.78;98293.78;7291024;19;130904;-39
2024/01/06 03:46:20;;;;;;;201.25;8.68;;;;;;;20.66;49.56;98279.78;7289352;19;129828;-39
2024/01/06 03:48:46;;;;;;;168.40;7.40;;;;;;;20.79;50.31;98298.41;7290756;19;129310;-39
2024/01/06 03:51:12;;;;;;;252.15;10.70;;;;;;;20.79;49.60;98303.63;7289819;19;129882;-37
2024/01/06 03:53:38;;;;;;;185.90;7.75;;;;;;;20.79;49.76;98302.78;7291513;19;131613;-39
2024/01/06 03:56:04;;;;;;;207.52;8.82;;;;;;;20.80;49.89;98301.78;7289301;19;129269;-40
2024/01/06 03:58:29;;;;;;;132.85;5.95;;;;;;;20.83;50.24;98306.69;7290673;19;130373;-40
2024/01/06 04:00:55;;;;;;;276.15;11.50;;;;;;;20.80;50.60;98305.22;7290055;19;130693;-33
2024/01/06 04:03:20;;;;;;;167.73;7.13;;;;;;;20.71;50.15;98301.00;7289937;19;129580;-38
2024/01/06 04:05:45;;;;;;;172.50;7.47;;;;;;;20.75;50.59;98307.53;7290590;19;131613;-39
2024/01/06 04:08:10;;;;;;;224.63;9.73;;;;;;;20.77;49.71;98306.38;7292183;19;134562;-40
2024/01/06 04:10:36;;;;;;;229.88;9.60;;;;;;;20.79;49.83;98303.63;7296181;19;131090;-41
2024/01/06 04:13:01;;;;;;;240.93;10.07;;;;;;;20.77;49.37;98300.34;7295074;19;131189;-36
2024/01/06 04:15:26;;;;;;;186.50;8.15;;;;;;;20.75;50.25;98302.31;7295022;19;129948;-39
2024/01/06 04:17:52;;;;;;;269.17;11.00;;;;;;;20.78;50.25;98307.19;7297184;19;130098;-38
2024/01/06 04:20:18;;;;;;;217.07;9.23;;;;;;;20.76;49.57;98308.34;7300399;19;133653;-38
2024/01/06 04:22:44;;;;;;;201.80;8.80;;;;;;;20.76;49.62;98313.56;7297132;19;129947;-38
2024/01/06 04:25:10;;;;;;;110.95;4.93;;;;;;;20.76;49.85;98309.16;7295279;19;130018;-38
2024/01/06 04:27:35;;;;;;;236.60;9.67;;;;;;;20.63;49.50;98294.00;7296893;19;129442;-38
2024/01/06 04:30:00;;;;;;;251.47;10.87;;;;;;;20.78;50.09;98309.81;7298273;19;130095;-38
2024/01/06 04:32:26;;;;;;;134.03;6.13;;;;;;;20.78;49.86;98309.81;7297758;19;130329;-38
2024/01/06 04:34:51;;;;;;;146.80;6.80;;;;;;;20.76;49.73;98308.34;7296564;19;129156;-38
2024/01/06 04:37:16;;;;;;;241.93;9.75;;;;;;;20.71;50.67;98306.22;7294178;19;129301;-38
2024/01/06 04:39:42;;;;;;;183.70;7.80;;;;;;;20.58;50.99;98316.34;7298750;19;130231;-39
2024/01/06 04:42:07;;;;;;;279.08;12.25;;;;;;;20.35;51.35;98290.09;7296194;19;131195;-38
2024/01/06 04:44:33;;;;;;;243.98;10.30;;;;;;;20.44;51.60;98320.41;7296350;19;129111;-38
2024/01/06 04:46:58;;;;;;;253.93;10.25;;;;;;;20.49;51.84;98314.72;7296199;19;129050;-38
2024/01/06 04:49:23;;;;;;;164.23;7.13;;;;;;;20.56;51.68;98316.50;7294818;19;130977;-38
2024/01/06 04:51:49;;;;;;;192.20;8.45;;;;;;;20.67;51.05;98318.00;7295798;19;131070;-38
2024/01/06 04:54:14;;;;;;;234.43;9.97;;;;;;;20.79;51.06;98316.69;7293427;19;131253;-39
2024/01/06 04:56:39;;;;;;;190.37;7.97;;;;;;;20.95;50.47;98324.47;7293699;19;129443;-38
2024/01/06 04:59:06;;;;;;;198.27;8.97;;;;;;;21.06;50.47;98321.53;7293729;19;129918;-38
2024/01/06 05:01:32;;;;;;;203.95;8.70;;;;;;;21.20;49.97;98320.88;7295347;19;130490;-38
2024/01/06 05:03:57;;;;;;;266.98;11.52;;;;;;;21.31;49.16;98317.88;7295002;19;129878;-38
2024/01/06 05:06:23;;;;;;;216.57;9.50;;;;;;;21.38;49.20;98324.06;7294723;19;129457;-38
2024/01/06 05:08:48;;;;;;;177.20;7.80;;;;;;;21.32;48.68;98311.66;7296186;19;131297;-39
2024/01/06 05:11:14;;;;;;;124.50;5.93;;;;;;;21.38;48.70;98321.47;7294683;19;131002;-39
2024/01/06 05:13:39;;;;;;;245.50;10.43;;;;;;;21.35;49.22;98332.25;7295037;19;129543;-38
2024/01/06 05:16:05;;;;;;;231.32;9.73;;;;;;;21.28;49.20;98336.53;7294422;19;129897;-38
2024/01/06 05:18:30;;;;;;;199.93;8.82;;;;;;;21.14;49.62;98318.91;7295703;19;130570;-38
2024/01/06 05:20:56;;;;;;;196.23;8.93;;;;;;;21.72;48.00;98340.25;7293267;19;129255;-38
2024/01/06 05:23:22;;;;;;;250.75;10.02;;;;;;;21.93;47.71;98337.88;7294518;19;129659;-37
2024/01/06 05:25:47;;;;;;;225.52;9.30;;;;;;;21.97;47.26;98348.81;7294635;19;130925;-39
2024/01/06 05:28:13;;;;;;;176.67;7.83;;;;;;;21.91;47.52;98345.09;7294089;19;130820;-38
2024/01/06 05:30:38;;;;;;;218.30;9.23;;;;;;;21.90;48.05;98345.25;7295104;19;131298;-41
2024/01/06 05:33:04;;;;;;;266.67;11.03;;;;;;;21.72;48.21;98334.22;7293426;19;129366;-39
2024/01/06 05:35:29;;;;;;;199.98;8.52;;;;;;;21.78;47.73;98350.06;7295601;19;129232;-38
2024/01/06 05:37:54;;;;;;;189.60;8.47;;;;;;;21.76;48.14;98349.44;7293287;19;133089;-39
2024/01/06 05:40:20;;;;;;;202.20;8.98;;;;;;;21.62;48.39;98349.28;7294821;19;129670;-38
2024/01/06 05:42:45;;;;;;;132.23;6.13;;;;;;;21.24;49.24;98358.72;7295361;19;130184;-38
2024/01/06 05:45:14;;;;;;;208.80;9.25;;;;;;;21.01;49.77;98355.19;7292041;19;129746;-39
2024/01/06 05:47:39;;;;;;;186.20;8.10;;;;;;;20.89;50.39;98359.09;7294925;19;130616;-38
2024/01/06 05:50:06;;;;;;;180.00;8.38;;;;;;;20.81;50.92;98358.31;7294060;19;130270;-38
2024/01/06 05:52:31;;;;;;;250.23;10.73;;;;;;;20.74;50.47;98368.59;7294166;19;129748;-38
2024/01/06 05:54:58;;;;;;;263.40;11.25;;;;;;;20.70;50.55;98369.88;7293609;19;130234;-38
2024/01/06 05:57:23;;;;;;;;;;;;;;;20.66;52.02;98379.00;7291704;19;130252;-38
2024/01/06 05:59:48;;;;;;;220.90;9.40;;;;;;;20.63;50.95;98379.34;7294471;19;130323;-38
2024/01/06 06:02:14;;;;;;;191.15;8.77;;;;;;;20.62;51.61;98388.16;7292142;19;129430;-38
2024/01/06 06:04:39;;;;;;;216.77;9.63;;;;;;;20.61;51.68;98389.13;7294850;19;129314;-38
2024/01/06 06:07:04;;;;;;;222.23;9.90;;;;;;;20.63;50.95;98393.22;7291834;19;129057;-38
2024/01/06 06:09:30;;;;;;;254.13;10.65;;;;;;;20.65;51.90;98390.44;7293343;19;130261;-37
2024/01/06 06:11:55;;;;;;;192.50;8.68;;;;;;;20.61;51.11;98395.16;7295040;19;131235;-38
2024/01/06 06:14:21;;;;;;;202.20;9.05;;;;;;;20.65;51.96;98406.13;7292778;19;129506;-38
2024/01/06 06:16:47;;;;;;;134.50;6.50;;;;;;;20.65;51.16;98409.56;7292145;19;130485;-37
2024/01/06 06:19:13;;;;;;;232.13;9.53;;;;;;;20.66;51.09;98407.72;7291442;19;130640;-38
2024/01/06 06:21:38;;;;;;;156.75;7.53;;;;;;;20.66;51.13;98411.19;7294367;19;129593;-38
2024/01/06 06:24:04;;;;;;;229.18;10.38;;;;;;;20.53;51.45;98391.72;7293540;19;129858;-38
2024/01/06 06:26:29;;;;;;;173.60;7.63;;;;;;;20.68;51.88;98411.00;7291000;19;130833;-38
2024/01/06 06:28:55;;;;;;;243.00;10.38;;;;;;;20.69;51.32;98423.91;7292017;19;130220;-38
2024/01/06 06:31:20;;;;;;;196.80;8.70;;;;;;;20.69;51.12;98425.72;7292979;19;129077;-38
2024/01/06 06:33:45;;;;;;;197.07;8.88;;;;;;;20.63;50.66;98398.44;7291536;19;129564;-39
2024/01/06 06:36:11;;;;;;;255.52;10.57;;;;;;;20.79;50.63;98428.16;7290615;19;130219;-38
2024/01/06 06:38:36;;;;;;;247.47;10.33;;;;;;;20.82;50.35;98427.84;7293970;19;132108;-38
2024/01/06 06:41:02;;;;;;;195.73;8.93;;;;;;;20.79;50.48;98429.00;7291533;19;130303;-42
2024/01/06 06:43:27;;;;;;;190.30;8.38;;;;;;;20.83;51.23;98435.50;7291547;19;131481;-40
2024/01/06 06:45:53;;;;;;;224.50;8.93;;;;;;;20.83;50.79;98439.91;7291512;19;131030;-39
2024/01/06 06:48:18;;;;;;;202.27;9.47;;;;;;;20.82;49.85;98446.94;7293603;19;129362;-40
2024/01/06 06:50:44;;;;;;;326.88;14.43;;;;;;;20.80;50.34;98456.72;7288487;19;129946;-41
2024/01/06 06:53:12;;;;;;;151.80;6.95;;;;;;;20.85;49.80;98454.44;7288547;19;129299;-37
2024/01/06 06:55:38;;;;;;;249.50;10.45;;;;;;;20.87;50.64;98457.72;7290314;19;130956;-40
2024/01/06 06:58:05;;;;;;;235.17;10.27;;;;;;;20.88;50.28;98453.28;7289185;19;132169;-41
2024/01/06 07:00:30;;;;;;;216.95;9.55;;;;;;;20.82;50.13;98457.41;7291514;19;129390;-39
2024/01/06 07:02:55;;;;;;;170.70;7.93;;;;;;;20.88;50.19;98459.34;7290714;19;130063;-39
2024/01/06 07:05:21;;;;;;;239.15;10.25;;;;;;;20.88;50.50;98464.56;7290721;19;130706;-42
2024/01/06 07:07:46;;;;;;;192.02;8.32;;;;;;;20.89;50.52;98460.19;7292559;19;130109;-40
2024/01/06 07:10:12;;;;;;;221.27;10.17;;;;;;;20.87;50.50;98473.41;7292329;19;129234;-39
2024/01/06 07:12:38;;;;;;;149.27;7.10;;;;;;;20.87;50.06;98483.84;7289745;19;130311;-37
2024/01/06 07:15:03;;;;;;;250.15;10.60;;;;;;;20.89;49.50;98476.66;7291051;19;130732;-43
2024/01/06 07:17:29;;;;;;;145.02;6.50;;;;;;;20.89;50.77;98484.47;7291263;19;130914;-41
2024/01/06 07:19:54;;;;;;;183.00;8.20;;;;;;;20.91;49.49;98489.56;7292517;19;130344;-38
2024/01/06 07:22:20;;;;;;;215.93;9.60;;;;;;;20.92;49.92;98485.97;7290676;19;130195;-40
2024/01/06 07:24:46;;;;;;;248.00;10.57;;;;;;;20.94;49.08;98497.09;7292007;19;130567;-42
2024/01/06 07:27:11;;;;;;;218.07;9.93;;;;;;;20.92;49.19;98496.41;7289827;19;130576;-42
2024/01/06 07:29:38;;;;;;;189.07;8.13;;;;;;;20.96;49.74;98502.97;7291569;19;130061;-38
2024/01/06 07:32:04;;;;;;;;;;;;;;;20.90;50.19;98504.41;7290771;19;129123;-39
2024/01/06 07:34:29;;;;;;;231.63;10.07;;;;;;;20.93;49.67;98511.94;7289539;19;132788;-41
2024/01/06 07:36:55;;;;;;;216.27;9.20;;;;;;;20.94;49.28;98510.94;7290807;19;132151;-40
2024/01/06 07:39:20;;;;;;;197.10;8.95;;;;;;;20.75;49.61;98487.75;7290065;19;129282;-40
2024/01/06 07:41:46;;;;;;;292.30;12.30;;;;;;;20.93;49.94;98514.53;7286075;19;129772;-39
2024/01/06 07:44:12;;;;;;;257.37;11.00;;;;;;;20.93;50.24;98519.78;7294018;19;130661;-40
2024/01/06 07:46:40;;;;;;;84.53;4.50;;;;;;;20.78;49.66;98500.47;7295511;19;130387;-38
2024/01/06 07:49:05;;;;;;;234.05;10.40;;;;;;;20.92;49.91;98512.91;7293827;19;129757;-38
2024/01/06 07:51:31;;;;;;;343.92;15.05;;;;;;;20.81;50.74;98515.81;7292864;19;129255;-38
2024/01/06 07:53:56;;;;;;;174.02;7.65;;;;;;;20.90;50.00;98516.66;7297097;19;130203;-38
2024/01/06 07:56:21;;;;;;;192.00;8.38;;;;;;;20.92;49.74;98518.16;7286795;19;130237;-39
2024/01/06 07:58:47;;;;;;;330.73;13.50;;;;;;;20.83;49.23;98487.75;7296645;19;129135;-39
2024/01/06 08:01:13;;;;;;;268.60;11.60;;;;;;;20.94;49.71;98515.38;7293396;19;131686;-39
2024/01/06 08:03:38;;;;;;;394.97;16.90;;;;;;;20.95;49.61;98523.03;7291639;19;130212;-41
2024/01/06 08:06:04;;;;;;;196.02;8.43;;;;;;;20.96;49.20;98524.66;7294467;19;130495;-38
2024/01/06 08:08:29;;;;;;;312.13;13.00;;;;;;;20.93;50.01;98535.44;7297549;19;129814;-38
2024/01/06 08:10:54;;;;;;;190.20;8.48;;;;;;;20.85;51.01;98540.66;7297156;19;130000;-39
2024/01/06 08:13:20;;;;;;;171.15;7.57;;;;;;;20.75;51.16;98550.44;7293769;19;131250;-38
2024/01/06 08:15:45;;;;;;;183.73;8.15;;;;;;;20.68;51.65;98546.81;7295114;19;130327;-38
2024/01/06 08:18:10;;;;;;;264.42;11.43;;;;;;;20.65;51.40;98541.91;7295579;19;131714;-39
2024/01/06 08:20:36;;;;;;;197.10;9.25;;;;;;;20.66;51.50;98548.75;7295637;19;131265;-39
2024/01/06 08:23:01;;;;;;;123.07;6.28;;;;;;;20.63;52.12;98549.06;7294646;19;129586;-38
2024/01/06 08:25:27;;;;;;;251.40;10.70;;;;;;;20.64;52.12;98550.75;7290949;19;130228;-38
2024/01/06 08:27:52;;;;;;;191.47;8.30;;;;;;;20.63;52.13;98554.31;7297858;19;130114;-38
2024/01/06 08:30:19;;;;;;;178.63;8.15;;;;;;;20.62;51.85;98563.13;7296347;19;130138;-38
2024/01/06 08:32:44;;;;;;;221.05;9.82;;;;;;;20.56;51.94;98559.34;7296343;19;130255;-39
2024/01/06 08:35:09;;;;;;;264.88;11.27;;;;;;;20.55;52.09;98556.91;7293926;19;131799;-38
2024/01/06 08:37:35;;;;;;;223.48;9.63;;;;;;;20.53;52.41;98558.84;7294581;19;129226;-39
2024/01/06 08:40:00;;;;;;;259.33;11.38;;;;;;;20.53;51.88;98558.84;7296623;19;130801;-38
2024/01/06 08:42:25;;;;;;;392.50;17.23;;;;;;;20.53;52.28;98566.66;7292225;19;130622;-38
2024/01/06 08:44:51;;;;;;;261.35;11.15;;;;;;;20.50;52.29;98569.59;7291250;19;130204;-39
2024/01/06 08:47:17;;;;;;;223.50;9.63;;;;;;;20.51;52.32;98572.06;7296398;19;131063;-39
2024/01/06 08:49:42;;;;;;;168.65;7.63;;;;;;;20.53;51.85;98575.31;7293991;19;130047;-39
2024/01/06 08:52:07;;;;;;;253.73;11.15;;;;;;;20.59;51.74;98579.13;7294287;19;129420;-40
2024/01/06 08:54:33;;;;;;;274.25;11.57;;;;;;;20.64;51.33;98587.28;7294223;19;129639;-39
2024/01/06 08:56:58;;;;;;;171.63;7.72;;;;;;;20.65;51.96;98584.53;7292867;19;132109;-38
2024/01/06 08:59:23;;;;;;;173.55;7.78;;;;;;;20.61;51.62;98592.81;7295254;19;130062;-39
2024/01/06 09:01:49;;;;;;;116.57;5.40;;;;;;;20.66;52.08;98590.53;7296469;19;129626;-38
2024/01/06 09:04:14;;;;;;;233.85;9.82;;;;;;;20.69;51.52;98590.25;7296398;19;130298;-39
2024/01/06 09:06:41;;;;;;;259.13;10.97;;;;;;;20.69;51.88;98600.69;7292673;19;129180;-38
2024/01/06 09:09:07;;;;;;;;;;;;;;;20.73;51.52;98602.00;7290894;19;129066;-37
2024/01/06 09:11:32;;;;;;;211.93;9.07;;;;;;;20.65;52.10;98605.41;7294000;19;130932;-38
2024/01/06 09:13:58;;;;;;;186.00;7.93;;;;;;;20.50;52.15;98611.38;7295869;19;130332;-38
2024/01/06 09:16:23;;;;;;;217.82;9.40;;;;;;;20.49;52.56;98609.75;7293760;19;129223;-38
2024/01/06 09:18:49;;;;;;;182.93;8.05;;;;;;;20.50;52.83;98616.59;7296132;19;130762;-38
2024/01/06 09:21:15;;;;;;;274.80;12.00;;;;;;;20.46;52.34;98615.28;7292496;19;130598;-38
2024/01/06 09:23:40;;;;;;;199.67;8.57;;;;;;;20.49;52.09;98614.97;7295346;19;131760;-39
2024/01/06 09:26:05;;;;;;;198.57;8.68;;;;;;;20.31;52.67;98590.75;7294233;19;130279;-41
2024/01/06 09:28:31;;;;;;;175.93;7.73;;;;;;;20.45;52.99;98618.84;7296435;19;129679;-38
2024/01/06 09:30:56;;;;;;;241.63;9.70;;;;;;;20.29;52.70;98598.72;7293520;19;129065;-38
2024/01/06 09:33:22;;;;;;;216.27;9.45;;;;;;;20.55;52.36;98624.78;7295844;19;129798;-40
2024/01/06 09:35:48;;;;;;;208.90;9.17;;;;;;;20.62;52.22;98625.81;7293183;19;129235;-41
2024/01/06 09:38:13;;;;;;;211.95;9.40;;;;;;;20.65;52.04;98633.31;7293688;19;130072;-40
2024/01/06 09:40:44;;;;;;;247.95;10.57;;;;;;;20.67;51.81;98626.16;7293718;19;130623;-36
2024/01/06 09:43:11;;;;;;;183.40;7.95;;;;;;;20.70;51.96;98628.44;7293690;19;132142;-37
2024/01/06 09:45:37;;;;;;;209.70;9.05;;;;;;;20.74;52.01;98624.56;7293398;19;129205;-37
2024/01/06 09:48:11;;;;;;;222.95;9.43;;;;;;;20.72;51.71;98629.91;7291643;19;129308;-39
2024/01/06 09:50:42;;;;;;;271.65;11.48;;;;;;;20.71;51.59;98620.44;7290456;19;130228;-40
2024/01/06 09:53:10;;;;;;;207.95;8.70;;;;;;;20.70;51.76;98623.22;7286092;19;131107;-41
2024/01/06 09:55:36;;;;;;;190.68;8.43;;;;;;;20.45;52.73;98608.41;7292785;19;130152;-40
2024/01/06 09:58:02;;;;;;;243.93;9.93;;;;;;;20.52;53.23;98627.72;7287961;19;129090;-40
2024/01/06 10:00:28;;;;;;;150.53;6.57;;;;;;;20.49;52.58;98630.63;7292849;19;129446;-38
2024/01/06 10:02:54;;;;;;;202.13;8.17;;;;;;;20.52;52.99;98630.31;7294060;19;130552;-37
2024/01/06 10:05:20;;;;;;;323.23;13.20;;;;;;;20.49;52.52;98631.44;7280228;19;130180;-38
2024/01/06 10:07:46;;;;;;;253.82;10.35;;;;;;;20.50;52.61;98627.03;7287229;19;133926;-35
2024/01/06 10:10:12;;;;;;;145.37;6.37;;;;;;;20.50;52.50;98624.44;7287641;19;129695;-36
2024/01/06 10:12:39;;;;;;;230.67;9.93;;;;;;;20.49;53.11;98620.19;7293634;19;129426;-40
2024/01/06 10:15:06;;;;;;;227.30;9.63;;;;;;;20.54;52.40;98623.16;7292647;19;130264;-35
2024/01/06 10:17:32;;;;;;;185.68;8.25;;;;;;;20.50;52.29;98617.44;7287714;19;130246;-41
2024/01/06 10:19:57;;;;;;;354.40;14.38;;;;;;;20.57;52.65;98625.44;7286804;19;131233;-36
2024/01/06 10:22:23;;;;;;;385.90;16.83;;;;;;;20.54;52.34;98608.28;7288223;19;130794;-35
2024/01/06 10:24:49;;;;;;;93.03;4.80;;;;;;;20.67;51.59;98619.13;7294071;19;131333;-40
2024/01/06 10:27:16;;;;;;;245.60;10.73;;;;;;;20.65;52.14;98625.47;7289552;19;130477;-39
2024/01/06 10:29:42;;;;;;;255.73;10.40;;;;;;;20.68;52.26;98620.75;7290891;19;131980;-40
2024/01/06 10:32:08;;;;;;;259.90;11.35;;;;;;;20.75;52.09;98626.19;7294408;19;132380;-38
2024/01/06 10:34:34;;;;;;;438.95;18.92;;;;;;;20.71;52.32;98622.22;7283813;19;129534;-41
2024/01/06 10:36:59;;;;;;;233.27;9.83;;;;;;;20.69;51.95;98616.38;7291793;19;129774;-40
2024/01/06 10:39:26;;;;;;;221.43;9.65;;;;;;;20.75;52.02;98620.94;7286566;19;129806;-34
2024/01/06 10:41:52;;;;;;;151.20;6.82;;;;;;;20.64;52.29;98619.44;7287291;19;131147;-39
2024/01/06 10:44:20;;;;;;;235.25;9.95;;;;;;;20.55;52.33;98619.56;7291277;19;133500;-37
2024/01/06 10:46:48;;;;;;;201.18;8.98;;;;;;;20.51;52.54;98613.03;7280768;19;131528;-41
2024/01/06 10:49:15;;;;;;;306.00;13.13;;;;;;;20.33;52.91;98588.78;7281990;19;131733;-35
2024/01/06 10:51:40;;;;;;;229.93;9.95;;;;;;;20.37;52.78;98587.50;7283912;19;131210;-35
2024/01/06 10:54:06;;;;;;;248.57;10.45;;;;;;;20.50;52.93;98606.97;7278421;19;129457;-40
2024/01/06 10:56:36;;;;;;;228.57;9.57;;;;;;;20.55;53.10;98611.72;7292707;19;131643;-39
2024/01/06 10:59:03;;;;;;;202.43;8.65;;;;;;;20.53;52.13;98616.28;7288261;19;129872;-33